Time;durP1;ratioP1;P1;durP2;ratioP2;P2;SDS_P1;SDS_P2;PMS_P1;PMS_P2;Temp;Humidity;BMP_temperature;BMP_pressure;BME280_temperature;BME280_humidity;BME280_pressure;Samples;Min_cycle;Max_cycle;Signal;HPM_P1;HPM_P2
2023/07/05 00:04:45;;;;;;;2.75;1.90;;;;;;;;;;10109576;28;20052;-59
2023/07/05 00:09:36;;;;;;;1.95;1.63;;;;;;;;;;10108034;28;20037;-59
2023/07/05 00:14:29;;;;;;;2.28;1.80;;;;;;;;;;10109037;28;20106;-59
2023/07/05 00:19:21;;;;;;;2.20;1.83;;;;;;;;;;10107924;28;20080;-58
2023/07/05 00:24:15;;;;;;;4.07;1.83;;;;;;;;;;10107798;28;20136;-59
2023/07/05 00:29:07;;;;;;;1.83;1.67;;;;;;;;;;10108454;28;20045;-59
2023/07/05 00:33:59;;;;;;;1.98;1.75;;;;;;;;;;10103758;28;20471;-59
2023/07/05 00:38:52;;;;;;;1.88;1.67;;;;;;;;;;10107274;28;20041;-59
2023/07/05 00:43:48;;;;;;;2.40;1.80;;;;;;;;;;10107895;28;20045;-58
2023/07/05 00:48:52;;;;;;;2.50;1.63;;;;;;;;;;10105160;28;20048;-59
2023/07/05 00:53:44;;;;;;;2.55;1.67;;;;;;;;;;10108288;28;20037;-59
2023/07/05 00:58:37;;;;;;;1.70;1.52;;;;;;;;;;10106381;28;20132;-59
2023/07/05 01:03:29;;;;;;;1.77;1.63;;;;;;;;;;10102883;28;20048;-59
2023/07/05 01:08:23;;;;;;;2.25;1.90;;;;;;;;;;10099742;28;20462;-59
2023/07/05 01:13:21;;;;;;;1.67;1.58;;;;;;;;;;10106676;28;20459;-59
2023/07/05 01:18:31;;;;;;;2.92;2.08;;;;;;;;;;10087794;28;20150;-59
2023/07/05 01:23:54;;;;;;;1.52;1.42;;;;;;;;;;10103579;28;20045;-58
2023/07/05 01:29:41;;;;;;;2.13;1.75;;;;;;;;;;10087838;28;20055;-59
2023/07/05 01:34:42;;;;;;;3.78;1.50;;;;;;;;;;10103913;28;20049;-59
2023/07/05 01:39:35;;;;;;;1.85;1.60;;;;;;;;;;10097810;28;20079;-59
2023/07/05 01:44:27;;;;;;;12.98;3.10;;;;;;;;;;10104673;28;20052;-59
2023/07/05 01:49:27;;;;;;;2.83;2.33;;;;;;;;;;10104688;28;20047;-59
2023/07/05 01:54:42;;;;;;;2.88;1.73;;;;;;;;;;10104522;28;20087;-59
2023/07/05 01:59:57;;;;;;;3.30;2.10;;;;;;;;;;10105989;28;20071;-59
2023/07/05 02:04:49;;;;;;;2.00;1.80;;;;;;;;;;10084615;28;20064;-59
2023/07/05 02:09:42;;;;;;;1.63;1.52;;;;;;;;;;10102606;28;20098;-59
2023/07/05 02:14:34;;;;;;;5.45;2.20;;;;;;;;;;10104437;28;20045;-59
2023/07/05 02:19:26;;;;;;;2.08;1.75;;;;;;;;;;10103662;28;20041;-59
2023/07/05 02:24:18;;;;;;;2.55;2.08;;;;;;;;;;10082658;28;20049;-59
2023/07/05 02:29:10;;;;;;;2.03;1.55;;;;;;;;;;10103262;28;20071;-59
2023/07/05 02:34:02;;;;;;;1.70;1.60;;;;;;;;;;10118077;28;20070;-59
2023/07/05 02:38:54;;;;;;;2.10;1.90;;;;;;;;;;10103008;28;20458;-59
2023/07/05 02:43:46;;;;;;;1.63;1.50;;;;;;;;;;10103076;28;20478;-59
2023/07/05 02:48:39;;;;;;;2.03;1.50;;;;;;;;;;10102797;28;20068;-59
2023/07/05 02:53:31;;;;;;;1.65;1.52;;;;;;;;;;10103616;28;20045;-59
2023/07/05 02:58:23;;;;;;;2.05;1.70;;;;;;;;;;10102782;28;20071;-59
2023/07/05 03:03:15;;;;;;;3.25;2.03;;;;;;;;;;10100959;28;20104;-58
2023/07/05 03:08:06;;;;;;;1.85;1.75;;;;;;;;;;10102583;28;20037;-59
2023/07/05 03:13:02;;;;;;;1.75;1.65;;;;;;;;;;10103038;28;20052;-59
2023/07/05 03:17:54;;;;;;;2.08;1.63;;;;;;;;;;10087504;28;20458;-59
2023/07/05 03:22:46;;;;;;;1.65;1.55;;;;;;;;;;10103034;28;20052;-59
2023/07/05 03:27:38;;;;;;;2.45;1.63;;;;;;;;;;10107081;28;20075;-59
2023/07/05 03:32:29;;;;;;;2.13;1.63;;;;;;;;;;10106046;28;20052;-59
2023/07/05 03:37:24;;;;;;;2.17;1.85;;;;;;;;;;10106451;28;20083;-58
2023/07/05 03:42:15;;;;;;;2.13;1.80;;;;;;;;;;10087599;28;20128;-59
2023/07/05 03:47:08;;;;;;;6.68;1.98;;;;;;;;;;10103774;28;20064;-58
2023/07/05 03:51:59;;;;;;;2.42;1.77;;;;;;;;;;10105790;28;20095;-59
2023/07/05 03:56:51;;;;;;;1.70;1.60;;;;;;;;;;10105114;28;20136;-59
2023/07/05 04:01:43;;;;;;;1.60;1.50;;;;;;;;;;10107736;28;20083;-58
2023/07/05 04:06:35;;;;;;;1.80;1.70;;;;;;;;;;10108629;28;20041;-59
2023/07/05 04:11:27;;;;;;;2.35;2.15;;;;;;;;;;10108319;28;20061;-59
2023/07/05 04:16:21;;;;;;;2.10;1.63;;;;;;;;;;10109510;28;20144;-58
2023/07/05 04:21:13;;;;;;;2.78;1.95;;;;;;;;;;10109332;28;20068;-58
2023/07/05 04:26:11;;;;;;;1.70;1.60;;;;;;;;;;10107705;28;20059;-58
2023/07/05 04:31:04;;;;;;;2.03;1.83;;;;;;;;;;10107758;28;20076;-59
2023/07/05 04:35:57;;;;;;;1.77;1.52;;;;;;;;;;10106041;28;20075;-59
2023/07/05 04:40:49;;;;;;;2.58;2.30;;;;;;;;;;10107628;28;20530;-59
2023/07/05 04:45:50;;;;;;;2.50;1.60;;;;;;;;;;10107006;28;20394;-59
2023/07/05 04:50:43;;;;;;;1.60;1.50;;;;;;;;;;10107291;28;20102;-59
2023/07/05 04:55:35;;;;;;;1.85;1.75;;;;;;;;;;10107221;28;20037;-59
2023/07/05 05:00:27;;;;;;;2.15;1.92;;;;;;;;;;10105188;28;20045;-59
2023/07/05 05:05:18;;;;;;;1.88;1.52;;;;;;;;;;10105217;28;20102;-57
2023/07/05 05:10:10;;;;;;;1.70;1.48;;;;;;;;;;10107765;28;20123;-57
2023/07/05 05:15:02;;;;;;;1.60;1.45;;;;;;;;;;10108055;28;20131;-57
2023/07/05 05:19:54;;;;;;;1.80;1.70;;;;;;;;;;10107143;28;20037;-57
2023/07/05 05:24:46;;;;;;;1.65;1.55;;;;;;;;;;10106543;28;20067;-57
2023/07/05 05:29:38;;;;;;;2.13;1.80;;;;;;;;;;10101573;28;20053;-58
2023/07/05 05:34:30;;;;;;;2.10;1.95;;;;;;;;;;10074626;28;20046;-60
2023/07/05 05:39:23;;;;;;;2.60;2.00;;;;;;;;;;10102098;28;20069;-58
2023/07/05 05:44:15;;;;;;;3.13;2.10;;;;;;;;;;10105252;28;20037;-58
2023/07/05 05:49:07;;;;;;;1.95;1.77;;;;;;;;;;10103558;28;20045;-60
2023/07/05 05:53:59;;;;;;;3.67;2.10;;;;;;;;;;10104728;28;20536;-61
2023/07/05 05:58:51;;;;;;;5.30;2.83;;;;;;;;;;10104664;28;20037;-60
2023/07/05 06:03:43;;;;;;;3.55;2.67;;;;;;;;;;10080888;28;20061;-60
2023/07/05 06:08:35;;;;;;;2.38;1.88;;;;;;;;;;10081201;28;20037;-60
2023/07/05 06:13:28;;;;;;;4.30;2.95;;;;;;;;;;10100732;28;20044;-58
2023/07/05 06:18:20;;;;;;;4.97;2.28;;;;;;;;;;10099741;28;20520;-61
2023/07/05 06:23:12;;;;;;;5.40;2.90;;;;;;;;;;10102546;28;20053;-60
2023/07/05 06:28:04;;;;;;;4.47;2.60;;;;;;;;;;10098896;28;20067;-59
2023/07/05 06:32:56;;;;;;;4.25;2.50;;;;;;;;;;10089524;28;20045;-60
2023/07/05 06:37:48;;;;;;;4.13;2.85;;;;;;;;;;10067259;28;20056;-61
2023/07/05 06:42:40;;;;;;;6.57;2.83;;;;;;;;;;10086899;28;20049;-60
2023/07/05 06:47:38;;;;;;;5.35;2.92;;;;;;;;;;10101878;28;20045;-60
2023/07/05 06:52:29;;;;;;;6.90;2.72;;;;;;;;;;10104720;28;20049;-60
2023/07/05 06:57:21;;;;;;;3.50;2.47;;;;;;;;;;10104481;28;20068;-60
2023/07/05 07:02:13;;;;;;;3.60;2.63;;;;;;;;;;10111328;28;20049;-60
2023/07/05 07:07:06;;;;;;;3.75;2.35;;;;;;;;;;10110749;28;20056;-60
2023/07/05 07:11:57;;;;;;;6.65;3.40;;;;;;;;;;10110813;28;20045;-60
2023/07/05 07:16:49;;;;;;;5.75;3.05;;;;;;;;;;10111043;28;20041;-60
2023/07/05 07:21:41;;;;;;;5.43;2.53;;;;;;;;;;10110529;28;20321;-60
2023/07/05 07:26:33;;;;;;;4.47;3.13;;;;;;;;;;10107521;28;20463;-60
2023/07/05 07:31:30;;;;;;;6.43;3.28;;;;;;;;;;10085061;28;20072;-60
2023/07/05 07:36:27;;;;;;;4.97;2.88;;;;;;;;;;10109598;28;20457;-60
2023/07/05 07:41:20;;;;;;;3.93;2.40;;;;;;;;;;10110654;28;20087;-60
2023/07/05 07:46:15;;;;;;;4.53;2.15;;;;;;;;;;10108636;28;20079;-60
2023/07/05 07:51:08;;;;;;;2.60;2.28;;;;;;;;;;10110085;28;20069;-60
2023/07/05 07:56:14;;;;;;;3.10;2.28;;;;;;;;;;10111197;28;20049;-60
2023/07/05 08:01:16;;;;;;;3.03;2.30;;;;;;;;;;10108574;28;20429;-60
2023/07/05 08:06:09;;;;;;;3.38;2.25;;;;;;;;;;10108238;28;20041;-60
2023/07/05 08:11:02;;;;;;;2.85;2.30;;;;;;;;;;10108965;28;20355;-60
2023/07/05 08:15:54;;;;;;;3.38;2.33;;;;;;;;;;10109405;28;20519;-60
2023/07/05 08:20:46;;;;;;;4.97;2.60;;;;;;;;;;10108152;28;20045;-61
2023/07/05 08:25:39;;;;;;;2.53;2.10;;;;;;;;;;10110155;28;20094;-60
2023/07/05 08:30:31;;;;;;;4.72;2.60;;;;;;;;;;10109723;28;20041;-60
2023/07/05 08:35:23;;;;;;;2.55;2.35;;;;;;;;;;10106881;28;20053;-60
2023/07/05 08:40:16;;;;;;;4.30;3.10;;;;;;;;;;10109105;28;20528;-60
2023/07/05 08:45:17;;;;;;;3.47;2.55;;;;;;;;;;10108169;28;20076;-60
2023/07/05 08:50:24;;;;;;;2.75;2.33;;;;;;;;;;10106942;28;20045;-60
2023/07/05 08:55:26;;;;;;;3.83;2.17;;;;;;;;;;10107460;28;20048;-61
2023/07/05 09:00:26;;;;;;;2.35;1.83;;;;;;;;;;10106147;28;20091;-61
2023/07/05 09:05:28;;;;;;;6.43;2.92;;;;;;;;;;10105075;28;20080;-60
2023/07/05 09:10:28;;;;;;;2.58;2.35;;;;;;;;;;10105783;28;20382;-60
2023/07/05 09:15:29;;;;;;;5.60;3.05;;;;;;;;;;10105913;28;20076;-60
2023/07/05 09:20:27;;;;;;;2.95;2.15;;;;;;;;;;10107103;28;20049;-61
2023/07/05 09:25:22;;;;;;;2.58;1.95;;;;;;;;;;10105420;28;20048;-60
2023/07/05 09:30:28;;;;;;;3.05;2.40;;;;;;;;;;10104728;28;20045;-60
2023/07/05 09:35:21;;;;;;;3.08;1.98;;;;;;;;;;10104479;28;20412;-60
2023/07/05 09:40:19;;;;;;;3.35;2.33;;;;;;;;;;10105640;28;20072;-60
2023/07/05 09:45:14;;;;;;;;;;;;;;;;;;10106931;28;20103;-60
2023/07/05 09:50:13;;;;;;;2.40;2.20;;;;;;;;;;10120674;28;19927;-60
2023/07/05 09:55:13;;;;;;;3.05;2.38;;;;;;;;;;10106032;28;20071;-60
2023/07/05 10:00:20;;;;;;;2.60;2.05;;;;;;;;;;10099093;28;20041;-60
2023/07/05 10:05:13;;;;;;;3.00;1.75;;;;;;;;;;10104202;28;20060;-61
2023/07/05 10:10:10;;;;;;;3.88;2.05;;;;;;;;;;10105686;28;20041;-60
2023/07/05 10:15:22;;;;;;;3.20;2.83;;;;;;;;;;10104123;28;20362;-60
2023/07/05 10:20:25;;;;;;;2.90;2.10;;;;;;;;;;10106686;28;20075;-60
2023/07/05 10:25:19;;;;;;;2.90;2.42;;;;;;;;;;10065776;28;20081;-60
2023/07/05 10:30:17;;;;;;;5.13;2.40;;;;;;;;;;10091535;28;20045;-60
2023/07/05 10:35:24;;;;;;;3.28;1.83;;;;;;;;;;10106397;28;20044;-60
2023/07/05 10:40:17;;;;;;;2.75;2.10;;;;;;;;;;10112240;28;20068;-60
2023/07/05 10:45:12;;;;;;;3.70;2.17;;;;;;;;;;10112102;28;20041;-60
2023/07/05 10:50:06;;;;;;;2.10;1.90;;;;;;;;;;10112133;28;20049;-60
2023/07/05 10:55:01;;;;;;;2.95;2.20;;;;;;;;;;10112560;28;20053;-60
2023/07/05 11:00:14;;;;;;;3.58;2.53;;;;;;;;;;10111899;28;20132;-60
2023/07/05 11:05:33;;;;;;;2.60;2.08;;;;;;;;;;10110961;28;20103;-60
2023/07/05 11:10:27;;;;;;;2.97;2.45;;;;;;;;;;10110441;28;20052;-60
2023/07/05 11:15:21;;;;;;;2.72;2.00;;;;;;;;;;10111545;28;20040;-60
2023/07/05 11:20:43;;;;;;;3.50;1.80;;;;;;;;;;10110363;28;20128;-60
2023/07/05 11:25:54;;;;;;;3.45;2.53;;;;;;;;;;10074877;28;20112;-60
2023/07/05 11:30:46;;;;;;;2.10;1.75;;;;;;;;;;10104653;28;20049;-60
2023/07/05 11:35:50;;;;;;;1.90;1.80;;;;;;;;;;10110151;28;20069;-60
2023/07/05 11:41:05;;;;;;;3.58;2.45;;;;;;;;;;10087601;28;20501;-60
2023/07/05 11:45:58;;;;;;;3.15;2.25;;;;;;;;;;10105509;28;20052;-60
2023/07/05 11:50:50;;;;;;;6.97;2.60;;;;;;;;;;10109265;28;20049;-60
2023/07/05 11:55:44;;;;;;;2.38;1.83;;;;;;;;;;10109729;28;20359;-60
2023/07/05 12:00:47;;;;;;;1.73;1.63;;;;;;;;;;10082786;28;20052;-60
2023/07/05 12:05:40;;;;;;;2.38;2.00;;;;;;;;;;10105948;28;20102;-60
2023/07/05 12:10:34;;;;;;;2.72;1.98;;;;;;;;;;10109904;28;20056;-60
2023/07/05 12:15:27;;;;;;;1.92;1.83;;;;;;;;;;10108510;28;20083;-60
2023/07/05 12:20:28;;;;;;;2.53;1.88;;;;;;;;;;10111041;28;20482;-60
2023/07/05 12:25:20;;;;;;;3.33;2.65;;;;;;;;;;10108806;28;20132;-60
2023/07/05 12:30:19;;;;;;;3.22;2.15;;;;;;;;;;10103218;28;20471;-60
2023/07/05 12:35:20;;;;;;;2.78;2.17;;;;;;;;;;10106687;28;20366;-60
2023/07/05 12:40:14;;;;;;;1.92;1.80;;;;;;;;;;10108189;28;20045;-60
2023/07/05 12:45:10;;;;;;;3.17;2.35;;;;;;;;;;10108257;28;20043;-60
2023/07/05 12:50:03;;;;;;;2.13;2.03;;;;;;;;;;10106597;28;20107;-60
2023/07/05 12:54:55;;;;;;;2.22;2.03;;;;;;;;;;10107964;28;20099;-60
2023/07/05 12:59:47;;;;;;;4.18;2.50;;;;;;;;;;10107028;28;20076;-60
2023/07/05 13:04:58;;;;;;;2.20;1.73;;;;;;;;;;10106616;28;20048;-60
2023/07/05 13:09:53;;;;;;;2.33;2.13;;;;;;;;;;10104102;28;20394;-60
2023/07/05 13:14:57;;;;;;;2.10;1.90;;;;;;;;;;10106243;28;20547;-60
2023/07/05 13:19:58;;;;;;;2.45;2.20;;;;;;;;;;10105902;28;20458;-61
2023/07/05 13:24:50;;;;;;;2.13;1.90;;;;;;;;;;10107421;28;20045;-60
2023/07/05 13:29:42;;;;;;;3.05;2.28;;;;;;;;;;10108387;28;20052;-60
2023/07/05 13:34:34;;;;;;;2.10;1.90;;;;;;;;;;10079299;28;20080;-60
2023/07/05 13:39:28;;;;;;;2.25;2.00;;;;;;;;;;10090603;28;20132;-60
2023/07/05 13:44:21;;;;;;;2.10;1.90;;;;;;;;;;10105404;28;20102;-60
2023/07/05 13:49:14;;;;;;;1.75;1.65;;;;;;;;;;10105789;28;20053;-60
2023/07/05 13:54:06;;;;;;;2.25;2.05;;;;;;;;;;10106923;28;20045;-60
2023/07/05 13:58:57;;;;;;;4.32;2.72;;;;;;;;;;10103986;28;20131;-60
2023/07/05 14:03:50;;;;;;;4.60;2.08;;;;;;;;;;10104766;28;20056;-60
2023/07/05 14:08:45;;;;;;;2.40;1.85;;;;;;;;;;10103551;28;20041;-60
2023/07/05 14:13:37;;;;;;;2.22;2.03;;;;;;;;;;10105522;28;20087;-60
2023/07/05 14:18:29;;;;;;;2.10;1.58;;;;;;;;;;10106096;28;20041;-60
2023/07/05 14:23:21;;;;;;;3.75;2.13;;;;;;;;;;10106164;28;20385;-60
2023/07/05 14:28:14;;;;;;;2.22;1.92;;;;;;;;;;10105400;28;20352;-60
2023/07/05 14:33:07;;;;;;;2.15;1.92;;;;;;;;;;10102223;28;20041;-60
2023/07/05 14:37:59;;;;;;;2.83;1.80;;;;;;;;;;10104772;28;20124;-60
2023/07/05 14:42:54;;;;;;;2.40;2.05;;;;;;;;;;10104354;28;20045;-61
2023/07/05 14:47:53;;;;;;;2.10;1.98;;;;;;;;;;10074926;28;20038;-60
2023/07/05 14:52:46;;;;;;;2.17;1.98;;;;;;;;;;10080367;28;20437;-60
2023/07/05 14:57:38;;;;;;;2.55;2.35;;;;;;;;;;10099255;28;20107;-60
2023/07/05 15:02:30;;;;;;;2.00;1.80;;;;;;;;;;10101441;28;20056;-60
2023/07/05 15:07:23;;;;;;;3.00;2.30;;;;;;;;;;10102066;28;20398;-60
2023/07/05 15:12:15;;;;;;;1.80;1.70;;;;;;;;;;10105329;28;20377;-60
2023/07/05 15:17:07;;;;;;;1.88;1.77;;;;;;;;;;10102746;28;20052;-60
2023/07/05 15:21:59;;;;;;;3.10;1.73;;;;;;;;;;10106612;28;20064;-60
2023/07/05 15:26:53;;;;;;;1.98;1.75;;;;;;;;;;10110273;28;20067;-60
2023/07/05 15:31:46;;;;;;;2.08;1.88;;;;;;;;;;10111436;28;20052;-60
2023/07/05 15:36:38;;;;;;;2.15;1.85;;;;;;;;;;10108101;28;20033;-60
2023/07/05 15:41:30;;;;;;;2.22;2.03;;;;;;;;;;10110682;28;20041;-60
2023/07/05 15:46:22;;;;;;;2.28;1.92;;;;;;;;;;10107928;28;20443;-60
2023/07/05 15:51:14;;;;;;;2.42;2.00;;;;;;;;;;10108066;28;20057;-60
2023/07/05 15:56:09;;;;;;;1.77;1.67;;;;;;;;;;10098196;28;20045;-60
2023/07/05 16:01:03;;;;;;;2.47;1.80;;;;;;;;;;10080663;28;20044;-60
2023/07/05 16:05:55;;;;;;;1.90;1.73;;;;;;;;;;10102646;28;20374;-60
2023/07/05 16:10:47;;;;;;;2.15;1.95;;;;;;;;;;10107918;28;20433;-60
2023/07/05 16:15:39;;;;;;;2.40;2.15;;;;;;;;;;10107110;28;20045;-60
2023/07/05 16:20:33;;;;;;;2.35;2.08;;;;;;;;;;10105357;28;20034;-60
2023/07/05 16:25:25;;;;;;;2.03;1.83;;;;;;;;;;10090810;28;20585;-60
2023/07/05 16:30:17;;;;;;;2.40;2.20;;;;;;;;;;10106761;28;20488;-60
2023/07/05 16:35:09;;;;;;;2.35;1.80;;;;;;;;;;10106549;28;20086;-60
2023/07/05 16:40:02;;;;;;;2.03;1.88;;;;;;;;;;10104583;28;20044;-61
2023/07/05 16:44:55;;;;;;;2.75;2.28;;;;;;;;;;10102735;28;20083;-60
2023/07/05 16:49:47;;;;;;;4.00;2.30;;;;;;;;;;10105520;28;20099;-61
2023/07/05 16:54:39;;;;;;;35.63;8.68;;;;;;;;;;10101913;28;20052;-60
2023/07/05 16:59:32;;;;;;;29.30;9.52;;;;;;;;;;10108185;28;20465;-60
2023/07/05 17:04:24;;;;;;;41.15;8.38;;;;;;;;;;10106503;28;20052;-60
2023/07/05 17:09:16;;;;;;;32.45;8.07;;;;;;;;;;10106950;28;20124;-60
2023/07/05 17:14:08;;;;;;;22.17;7.07;;;;;;;;;;10104407;28;20104;-60
2023/07/05 17:19:00;;;;;;;25.05;7.63;;;;;;;;;;10105030;28;20041;-61
2023/07/05 17:23:52;;;;;;;22.90;8.05;;;;;;;;;;10104650;28;20052;-60
2023/07/05 17:28:45;;;;;;;20.90;7.65;;;;;;;;;;10105255;28;20115;-60
2023/07/05 17:33:37;;;;;;;19.73;7.88;;;;;;;;;;10104767;28;20042;-61
2023/07/05 17:38:30;;;;;;;22.35;7.72;;;;;;;;;;10105415;28;20051;-61
2023/07/05 17:43:23;;;;;;;18.42;6.43;;;;;;;;;;10105988;28;20048;-60
2023/07/05 17:48:15;;;;;;;15.68;7.35;;;;;;;;;;10104652;28;20386;-60
2023/07/05 17:53:06;;;;;;;12.43;5.65;;;;;;;;;;10104253;28;20079;-61
2023/07/05 17:58:00;;;;;;;13.52;5.40;;;;;;;;;;10105996;28;20418;-60
2023/07/05 18:02:53;;;;;;;11.50;6.55;;;;;;;;;;10097818;28;20099;-61
2023/07/05 18:07:47;;;;;;;11.52;6.57;;;;;;;;;;10104096;28;20368;-60
2023/07/05 18:12:39;;;;;;;11.35;5.25;;;;;;;;;;10103809;28;20067;-61
2023/07/05 18:17:31;;;;;;;12.18;5.45;;;;;;;;;;10104723;28;20045;-60
2023/07/05 18:22:23;;;;;;;9.18;5.55;;;;;;;;;;10103554;28;20040;-59
2023/07/05 18:27:16;;;;;;;11.35;5.63;;;;;;;;;;10101891;28;20038;-60
2023/07/05 18:32:09;;;;;;;9.82;5.50;;;;;;;;;;10090443;28;20049;-61
2023/07/05 18:37:01;;;;;;;11.10;4.43;;;;;;;;;;10101555;28;20037;-60
2023/07/05 18:41:53;;;;;;;9.60;4.60;;;;;;;;;;10102788;28;20076;-61
2023/07/05 18:46:45;;;;;;;9.18;5.25;;;;;;;;;;10096996;28;20080;-60
2023/07/05 18:51:37;;;;;;;8.40;4.80;;;;;;;;;;10102487;28;20037;-60
2023/07/05 18:56:29;;;;;;;8.63;4.97;;;;;;;;;;10108013;28;20041;-61
2023/07/05 19:01:22;;;;;;;9.15;4.75;;;;;;;;;;10110279;28;20091;-60
2023/07/05 19:06:22;;;;;;;10.18;4.72;;;;;;;;;;10110424;28;20056;-60
2023/07/05 19:11:17;;;;;;;8.07;5.13;;;;;;;;;;10111643;28;20044;-61
2023/07/05 19:16:11;;;;;;;7.70;5.05;;;;;;;;;;10110340;28;20045;-61
2023/07/05 19:21:03;;;;;;;7.05;4.90;;;;;;;;;;10110600;28;20080;-61
2023/07/05 19:25:57;;;;;;;11.20;5.88;;;;;;;;;;10110344;28;20076;-60
2023/07/05 19:30:50;;;;;;;7.70;4.53;;;;;;;;;;10107178;28;20033;-61
2023/07/05 19:35:42;;;;;;;7.57;4.90;;;;;;;;;;10109379;28;20049;-60
2023/07/05 19:40:34;;;;;;;7.18;5.03;;;;;;;;;;10103202;28;20124;-60
2023/07/05 19:45:26;;;;;;;6.63;4.50;;;;;;;;;;10108118;28;20433;-60
2023/07/05 19:50:17;;;;;;;6.72;4.85;;;;;;;;;;10111988;28;20055;-60
2023/07/05 19:55:09;;;;;;;86.03;23.88;;;;;;;;;;10099159;28;20041;-61
2023/07/05 20:00:04;;;;;;;66.88;22.23;;;;;;;;;;10114232;28;20045;-62
2023/07/05 20:05:00;;;;;;;38.20;12.05;;;;;;;;;;10137812;28;20056;-61
2023/07/05 20:09:52;;;;;;;11.65;6.10;;;;;;;;;;10070345;28;20045;-62
2023/07/05 20:14:43;;;;;;;11.10;4.40;;;;;;;;;;10084929;28;20042;-62
2023/07/05 20:19:35;;;;;;;9.23;3.72;;;;;;;;;;10084827;28;20470;-61
2023/07/05 20:24:27;;;;;;;8.25;3.88;;;;;;;;;;10094201;28;20102;-62
2023/07/05 20:29:19;;;;;;;8.30;3.30;;;;;;;;;;10139044;28;20382;-62
2023/07/05 20:34:14;;;;;;;7.47;2.78;;;;;;;;;;10124920;28;20385;-62
2023/07/05 20:39:06;;;;;;;5.75;3.25;;;;;;;;;;10106550;28;20047;-62
2023/07/05 20:43:58;;;;;;;6.00;3.72;;;;;;;;;;10131420;28;20114;-61
2023/07/05 20:48:53;;;;;;;5.18;3.78;;;;;;;;;;10128829;28;20455;-62
2023/07/05 20:53:45;;;;;;;5.25;2.83;;;;;;;;;;10100231;28;20056;-62
2023/07/05 20:58:38;;;;;;;5.68;3.72;;;;;;;;;;10117779;28;20040;-62
2023/07/05 21:03:30;;;;;;;5.68;3.45;;;;;;;;;;10126559;28;20390;-62
2023/07/05 21:08:22;;;;;;;6.15;3.25;;;;;;;;;;10110621;28;20064;-62
2023/07/05 21:13:16;;;;;;;4.53;3.53;;;;;;;;;;10108557;28;20048;-62
2023/07/05 21:18:09;;;;;;;5.93;3.72;;;;;;;;;;10119562;28;20485;-62
2023/07/05 21:23:02;;;;;;;5.00;2.83;;;;;;;;;;10123139;28;20041;-62
2023/07/05 21:27:57;;;;;;;6.25;3.35;;;;;;;;;;10105174;28;20052;-63
2023/07/05 21:32:49;;;;;;;11.25;3.78;;;;;;;;;;10104338;28;20132;-61
2023/07/05 21:37:42;;;;;;;6.72;3.70;;;;;;;;;;10103720;28;20099;-61
2023/07/05 21:42:33;;;;;;;6.80;3.33;;;;;;;;;;10103787;28;20432;-61
2023/07/05 21:47:25;;;;;;;3.85;3.35;;;;;;;;;;10104842;28;20079;-61
2023/07/05 21:52:18;;;;;;;6.95;3.63;;;;;;;;;;10119057;28;20037;-62
2023/07/05 21:57:11;;;;;;;6.32;3.30;;;;;;;;;;10112797;28;20055;-61
2023/07/05 22:02:04;;;;;;;4.38;3.08;;;;;;;;;;10117450;28;20107;-61
2023/07/05 22:07:00;;;;;;;6.30;3.70;;;;;;;;;;10069428;28;20077;-61
2023/07/05 22:11:52;;;;;;;7.40;3.38;;;;;;;;;;10065933;28;20073;-61
2023/07/05 22:16:44;;;;;;;3.88;3.25;;;;;;;;;;10066809;28;20152;-61
2023/07/05 22:21:36;;;;;;;6.22;3.28;;;;;;;;;;10078961;28;20092;-61
2023/07/05 22:26:28;;;;;;;5.90;3.67;;;;;;;;;;10073744;28;20143;-61
2023/07/05 22:31:19;;;;;;;9.13;3.70;;;;;;;;;;10085332;28;20129;-61
2023/07/05 22:36:13;;;;;;;4.85;3.60;;;;;;;;;;10066915;28;20455;-61
2023/07/05 22:41:05;;;;;;;5.85;3.70;;;;;;;;;;10094981;28;20531;-61
2023/07/05 22:46:02;;;;;;;6.15;3.40;;;;;;;;;;10066293;28;20092;-61
2023/07/05 22:50:55;;;;;;;7.35;3.53;;;;;;;;;;10079431;28;20121;-61
2023/07/05 22:55:46;;;;;;;4.07;3.13;;;;;;;;;;10085776;28;20155;-61
2023/07/05 23:00:38;;;;;;;7.57;4.78;;;;;;;;;;10096538;28;20087;-61
2023/07/05 23:05:31;;;;;;;6.00;3.58;;;;;;;;;;10104006;28;20053;-61
2023/07/05 23:10:23;;;;;;;6.72;4.15;;;;;;;;;;10106055;28;20048;-61
2023/07/05 23:15:15;;;;;;;4.80;3.40;;;;;;;;;;10105638;28;20090;-61
2023/07/05 23:20:09;;;;;;;4.57;3.40;;;;;;;;;;10104712;28;20083;-61
2023/07/05 23:25:01;;;;;;;5.18;3.10;;;;;;;;;;10105916;28;20045;-61
2023/07/05 23:29:54;;;;;;;12.23;5.05;;;;;;;;;;10105527;28;20457;-61
2023/07/05 23:34:45;;;;;;;5.72;4.22;;;;;;;;;;10105763;28;20053;-61
2023/07/05 23:39:37;;;;;;;5.53;3.67;;;;;;;;;;10105659;28;20478;-61
2023/07/05 23:44:30;;;;;;;5.05;3.30;;;;;;;;;;10110884;28;20379;-61
2023/07/05 23:49:24;;;;;;;5.38;3.25;;;;;;;;;;10112902;28;20091;-61
2023/07/05 23:54:16;;;;;;;4.40;3.10;;;;;;;;;;10109774;28;20072;-61
2023/07/05 23:59:08;;;;;;;6.05;3.78;;;;;;;;;;10108691;28;20471;-61
